createdAt,value
2023-01-27T00:00:13.480Z,8.50
2023-01-27T00:03:01.798Z,8.82
2023-01-27T00:05:50.210Z,9.05
2023-01-27T00:08:38.534Z,8.35
2023-01-27T00:11:44.241Z,9.23
2023-01-27T00:14:33.757Z,7.88
2023-01-27T00:17:21.924Z,8.07
2023-01-27T00:20:11.778Z,8.27
2023-01-27T00:23:17.897Z,7.82
2023-01-27T00:26:08.939Z,7.90
2023-01-27T00:28:57.099Z,7.95
2023-01-27T00:32:04.050Z,9.13
2023-01-27T00:34:52.208Z,7.40
2023-01-27T00:37:40.390Z,7.75
2023-01-27T00:40:28.598Z,7.45
2023-01-27T00:43:16.780Z,7.57
2023-01-27T00:46:05.264Z,7.00
2023-01-27T00:48:57.367Z,7.57
2023-01-27T00:51:45.836Z,7.25
2023-01-27T00:54:33.998Z,8.05
2023-01-27T00:57:22.426Z,7.80
2023-01-27T01:00:12.368Z,7.45
2023-01-27T01:03:00.775Z,7.10
2023-01-27T01:05:50.557Z,7.25
2023-01-27T01:08:39.409Z,7.35
2023-01-27T01:11:27.841Z,7.10
2023-01-27T01:14:16.054Z,7.57
2023-01-27T01:17:04.216Z,7.75
2023-01-27T01:19:52.376Z,7.80
2023-01-27T01:22:41.903Z,6.95
2023-01-27T01:25:30.047Z,7.53
2023-01-27T01:28:18.191Z,7.97
2023-01-27T01:31:07.841Z,7.18
2023-01-27T01:33:56.066Z,7.03
2023-01-27T01:36:44.207Z,6.82
2023-01-27T01:39:33.970Z,7.38
2023-01-27T01:42:22.168Z,7.07
2023-01-27T01:45:47.003Z,7.30
2023-01-27T01:48:37.449Z,6.50
2023-01-27T01:51:29.662Z,7.10
2023-01-27T01:54:20.509Z,6.90
2023-01-27T01:57:13.431Z,6.72
2023-01-27T02:00:04.836Z,6.97
2023-01-27T02:02:54.743Z,7.28
2023-01-27T02:05:45.494Z,6.90
2023-01-27T02:08:40.095Z,7.65
2023-01-27T02:11:29.736Z,7.03
2023-01-27T02:14:19.706Z,7.80
2023-01-27T02:17:08.973Z,7.10
2023-01-27T02:20:06.180Z,6.93
2023-01-27T02:23:07.326Z,7.45
2023-01-27T02:26:01.259Z,6.85
2023-01-27T02:28:55.102Z,6.00
2023-01-27T02:31:43.547Z,5.93
2023-01-27T02:34:37.187Z,6.75
2023-01-27T02:37:26.407Z,6.03
2023-01-27T02:40:15.893Z,6.10
2023-01-27T02:43:06.025Z,6.10
2023-01-27T02:45:54.223Z,6.40
2023-01-27T02:48:42.377Z,5.95
2023-01-27T02:51:31.057Z,5.90
2023-01-27T02:54:19.288Z,5.72
2023-01-27T02:57:08.087Z,5.40
2023-01-27T02:59:57.694Z,6.05
2023-01-27T03:02:45.973Z,6.18
2023-01-27T03:05:34.204Z,5.80
2023-01-27T03:08:22.371Z,6.45
2023-01-27T03:11:11.723Z,6.43
2023-01-27T03:13:59.849Z,6.32
2023-01-27T03:17:06.890Z,5.25
2023-01-27T03:19:55.083Z,5.25
2023-01-27T03:22:43.222Z,5.15
2023-01-27T03:25:31.398Z,5.22
2023-01-27T03:28:19.587Z,5.30
2023-01-27T03:31:09.945Z,5.50
2023-01-27T03:33:59.544Z,4.45
2023-01-27T03:37:05.211Z,5.10
2023-01-27T03:40:11.079Z,5.15
2023-01-27T03:43:17.589Z,4.82
2023-01-27T03:46:19.356Z,4.93
2023-01-27T03:49:08.875Z,4.90
2023-01-27T03:51:57.003Z,4.60
2023-01-27T03:54:45.144Z,5.15
2023-01-27T03:57:33.291Z,4.88
2023-01-27T04:00:22.105Z,5.13
2023-01-27T04:03:28.090Z,4.47
2023-01-27T04:06:37.187Z,4.47
2023-01-27T04:09:27.140Z,4.63
2023-01-27T04:12:15.322Z,4.95
2023-01-27T04:15:03.546Z,4.55
2023-01-27T04:17:51.697Z,4.75
2023-01-27T04:20:39.870Z,4.88
2023-01-27T04:23:29.368Z,4.38
2023-01-27T04:26:17.528Z,4.85
2023-01-27T04:29:07.369Z,4.88
2023-01-27T04:31:57.848Z,4.60
2023-01-27T04:34:46.666Z,4.70
2023-01-27T04:37:34.844Z,4.50
2023-01-27T04:40:24.312Z,4.68
2023-01-27T04:43:12.487Z,4.57
2023-01-27T04:46:00.720Z,5.00
2023-01-27T04:48:48.930Z,4.90
2023-01-27T04:51:37.136Z,4.53
2023-01-27T04:54:25.317Z,5.03
2023-01-27T04:57:14.817Z,4.50
2023-01-27T05:00:02.982Z,4.50
2023-01-27T05:02:51.312Z,4.55
2023-01-27T05:05:40.115Z,4.43
2023-01-27T05:08:28.293Z,3.83
2023-01-27T05:11:16.849Z,4.68
2023-01-27T05:14:06.340Z,5.30
2023-01-27T05:16:54.646Z,5.22
2023-01-27T05:19:42.886Z,5.10
2023-01-27T05:22:31.359Z,5.63
2023-01-27T05:25:19.590Z,5.53
2023-01-27T05:28:08.158Z,4.97
2023-01-27T05:31:03.745Z,6.38
2023-01-27T05:33:54.008Z,5.05
2023-01-27T05:36:42.184Z,5.30
2023-01-27T05:39:30.356Z,5.40
2023-01-27T05:42:18.514Z,5.40
2023-01-27T05:45:08.121Z,4.93
2023-01-27T05:47:57.654Z,5.90
2023-01-27T05:50:54.289Z,5.28
2023-01-27T05:53:42.504Z,5.75
2023-01-27T05:56:30.999Z,5.22
2023-01-27T05:59:19.299Z,5.28
2023-01-27T06:02:07.531Z,4.85
2023-01-27T06:04:57.254Z,5.80
2023-01-27T06:07:45.410Z,5.57
2023-01-27T06:10:37.174Z,6.55
2023-01-27T06:13:26.152Z,6.20
2023-01-27T06:16:17.354Z,5.55
2023-01-27T06:21:54.899Z,6.50
2023-01-27T06:24:43.048Z,6.30
2023-01-27T06:27:31.184Z,6.03
2023-01-27T06:30:19.667Z,9.30
2023-01-27T06:33:08.844Z,24.77
2023-01-27T06:36:02.972Z,25.65
2023-01-27T06:38:52.570Z,10.05
2023-01-27T06:41:40.769Z,7.88
2023-01-27T06:44:28.924Z,8.10
2023-01-27T06:47:17.444Z,7.35
2023-01-27T06:50:06.190Z,7.13
2023-01-27T06:52:54.860Z,7.57
2023-01-27T06:55:44.903Z,9.65
2023-01-27T06:58:33.123Z,10.27
2023-01-27T07:01:21.879Z,8.38
2023-01-27T07:04:10.036Z,6.72
2023-01-27T07:06:58.239Z,6.88
2023-01-27T07:09:52.283Z,7.75
2023-01-27T07:12:42.352Z,6.60
2023-01-27T07:15:32.150Z,6.00
2023-01-27T07:18:20.320Z,6.25
2023-01-27T07:21:08.498Z,6.32
2023-01-27T07:23:56.736Z,6.07
2023-01-27T07:26:47.421Z,5.80
2023-01-27T07:29:36.887Z,6.72
2023-01-27T07:32:27.281Z,7.30
2023-01-27T07:35:16.666Z,5.20
2023-01-27T07:38:05.312Z,5.00
2023-01-27T07:40:53.517Z,5.40
2023-01-27T07:43:41.763Z,5.82
2023-01-27T07:46:31.690Z,5.45
2023-01-27T07:49:19.870Z,5.70
2023-01-27T07:52:08.258Z,5.13
2023-01-27T07:54:56.456Z,5.07
2023-01-27T07:57:44.630Z,5.22
2023-01-27T08:00:33.298Z,5.10
2023-01-27T08:03:25.532Z,5.40
2023-01-27T08:06:14.635Z,5.00
2023-01-27T08:09:03.049Z,5.07
2023-01-27T08:11:51.232Z,4.47
2023-01-27T08:14:39.422Z,4.65
2023-01-27T08:17:27.639Z,4.20
2023-01-27T08:20:19.035Z,4.63
2023-01-27T08:23:07.178Z,4.32
2023-01-27T08:25:57.070Z,4.20
2023-01-27T08:28:45.206Z,4.63
2023-01-27T08:31:33.408Z,4.35
2023-01-27T08:34:21.567Z,4.38
2023-01-27T08:37:11.157Z,4.03
2023-01-27T08:39:59.288Z,4.75
2023-01-27T08:42:47.455Z,4.35
2023-01-27T08:45:36.502Z,4.70
2023-01-27T08:48:24.812Z,9.10
2023-01-27T08:51:15.107Z,6.50
2023-01-27T08:54:04.752Z,4.77
2023-01-27T08:56:52.965Z,6.15
2023-01-27T08:59:41.157Z,4.30
2023-01-27T09:02:29.312Z,6.18
2023-01-27T09:05:18.713Z,4.47
2023-01-27T09:08:07.546Z,4.10
2023-01-27T09:10:57.454Z,3.00
2023-01-27T09:13:45.611Z,2.60
2023-01-27T09:16:33.935Z,2.50
2023-01-27T09:19:22.154Z,2.30
2023-01-27T09:22:10.514Z,2.28
2023-01-27T09:24:58.699Z,1.73
2023-01-27T09:27:48.202Z,1.95
2023-01-27T09:30:36.479Z,1.50
2023-01-27T09:33:25.893Z,1.52
2023-01-27T09:36:18.666Z,1.20
2023-01-27T09:39:08.877Z,1.10
2023-01-27T09:42:24.768Z,1.10
2023-01-27T09:45:44.613Z,1.60
2023-01-27T09:48:47.844Z,1.60
2023-01-27T09:51:45.891Z,1.70
2023-01-27T09:54:52.043Z,1.88
2023-01-27T09:57:51.460Z,2.00
2023-01-27T10:00:50.106Z,1.90
2023-01-27T10:03:56.231Z,2.45
2023-01-27T10:07:08.729Z,1.55
2023-01-27T10:10:07.859Z,1.50
2023-01-27T10:13:24.348Z,1.75
2023-01-27T10:16:27.371Z,1.90
2023-01-27T10:19:28.530Z,1.77
2023-01-27T10:22:24.546Z,1.17
2023-01-27T10:25:25.546Z,1.63
2023-01-27T10:28:15.932Z,1.10
2023-01-27T10:31:09.683Z,1.52
2023-01-27T10:34:07.911Z,1.40
2023-01-27T10:37:10.917Z,1.20
2023-01-27T10:40:04.887Z,0.93
2023-01-27T10:43:03.802Z,0.93
2023-01-27T10:45:59.753Z,0.90
2023-01-27T10:48:52.258Z,0.80
2023-01-27T10:51:47.011Z,0.90
2023-01-27T10:54:41.216Z,0.88
2023-01-27T10:57:36.011Z,0.60
2023-01-27T11:03:44.333Z,0.75
2023-01-27T11:06:36.414Z,1.10
2023-01-27T11:09:30.133Z,0.93
2023-01-27T11:12:26.499Z,1.00
2023-01-27T11:15:20.494Z,1.10
2023-01-27T11:18:16.927Z,1.10
2023-01-27T11:21:07.966Z,1.23
2023-01-27T11:23:59.329Z,1.38
2023-01-27T11:26:55.583Z,0.93
2023-01-27T11:29:49.862Z,0.90
2023-01-27T11:32:45.707Z,1.13
2023-01-27T11:35:33.907Z,0.90
2023-01-27T11:38:24.182Z,0.80
2023-01-27T11:41:12.375Z,0.80
2023-01-27T11:44:06.062Z,1.00
2023-01-27T11:46:55.294Z,1.20
2023-01-27T11:49:47.214Z,0.90
2023-01-27T11:52:35.550Z,0.95
2023-01-27T11:55:26.745Z,1.20
2023-01-27T12:01:12.440Z,1.17
2023-01-27T12:04:06.863Z,1.23
2023-01-27T12:07:00.177Z,2.00
2023-01-27T12:09:48.517Z,1.73
2023-01-27T12:12:38.555Z,1.98
2023-01-27T12:15:29.051Z,2.33
2023-01-27T12:18:18.766Z,2.95
2023-01-27T12:21:10.367Z,2.40
2023-01-27T12:23:58.645Z,2.05
2023-01-27T12:26:46.878Z,2.30
2023-01-27T12:29:41.111Z,2.38
2023-01-27T12:32:39.810Z,2.45
2023-01-27T12:35:33.830Z,3.33
2023-01-27T12:38:24.870Z,3.05
2023-01-27T12:41:21.280Z,2.60
2023-01-27T12:44:16.457Z,2.35
2023-01-27T12:47:20.315Z,2.50
2023-01-27T12:50:22.265Z,2.22
2023-01-27T12:53:16.578Z,1.80
2023-01-27T12:56:13.197Z,1.85
2023-01-27T12:59:03.713Z,1.70
2023-01-27T13:02:03.845Z,2.28
2023-01-27T13:04:55.283Z,2.00
2023-01-27T13:07:47.335Z,1.90
2023-01-27T13:10:37.119Z,1.67
2023-01-27T13:13:27.940Z,1.55
2023-01-27T13:16:19.168Z,1.60
2023-01-27T13:22:05.916Z,1.50
2023-01-27T13:24:58.994Z,1.83
2023-01-27T13:27:50.420Z,1.85
2023-01-27T13:30:41.813Z,1.90
2023-01-27T13:33:37.623Z,1.73
2023-01-27T13:36:32.912Z,1.83
2023-01-27T13:39:29.656Z,1.95
2023-01-27T13:42:22.570Z,1.70
2023-01-27T13:45:17.558Z,2.05
2023-01-27T13:48:13.581Z,2.00
2023-01-27T13:51:08.008Z,1.70
2023-01-27T13:54:00.468Z,1.27
2023-01-27T13:57:00.003Z,1.20
2023-01-27T13:59:59.208Z,1.70
2023-01-27T14:03:16.793Z,1.70
2023-01-27T14:06:17.212Z,1.60
2023-01-27T14:09:24.792Z,1.00
2023-01-27T14:12:27.848Z,1.30
2023-01-27T14:15:27.953Z,1.50
2023-01-27T14:18:22.907Z,1.63
2023-01-27T14:21:40.169Z,1.15
2023-01-27T14:24:41.194Z,1.38
2023-01-27T14:27:36.305Z,1.73
2023-01-27T14:30:27.588Z,1.83
2023-01-27T14:36:16.444Z,1.60
2023-01-27T14:39:16.742Z,1.00
2023-01-27T14:42:12.214Z,1.10
2023-01-27T14:45:07.051Z,1.42
2023-01-27T14:48:03.514Z,1.42
2023-01-27T14:51:00.530Z,1.13
2023-01-27T14:54:02.452Z,2.03
2023-01-27T14:57:08.010Z,1.17
2023-01-27T15:00:04.985Z,1.67
2023-01-27T15:03:07.216Z,1.15
2023-01-27T15:06:02.816Z,1.33
2023-01-27T15:08:57.823Z,1.45
2023-01-27T15:12:19.832Z,1.20
2023-01-27T15:15:34.501Z,1.60
2023-01-27T15:18:32.720Z,1.10
2023-01-27T15:21:33.573Z,1.38
2023-01-27T15:24:38.838Z,1.33
2023-01-27T15:27:28.188Z,1.30
2023-01-27T15:30:24.135Z,1.50
2023-01-27T15:33:45.733Z,1.40
2023-01-27T15:36:38.677Z,1.50
2023-01-27T15:39:40.505Z,1.17
2023-01-27T15:42:51.387Z,1.30
2023-01-27T15:45:42.359Z,1.33
2023-01-27T15:48:34.963Z,1.55
2023-01-27T15:51:25.068Z,1.02
2023-01-27T15:54:19.584Z,1.65
2023-01-27T15:57:21.677Z,1.98
2023-01-27T16:00:27.990Z,1.20
2023-01-27T16:03:25.262Z,2.17
2023-01-27T16:06:16.469Z,1.60
2023-01-27T16:12:03.350Z,1.60
2023-01-27T16:15:12.185Z,1.70
2023-01-27T16:18:24.847Z,1.42
2023-01-27T16:21:39.082Z,1.95
2023-01-27T16:24:33.964Z,1.83
2023-01-27T16:27:39.259Z,2.20
2023-01-27T16:30:30.691Z,1.90
2023-01-27T16:33:25.779Z,2.55
2023-01-27T16:36:22.528Z,1.80
2023-01-27T16:39:28.668Z,1.90
2023-01-27T16:42:18.312Z,2.38
2023-01-27T16:45:19.200Z,2.78
2023-01-27T16:48:14.275Z,1.60
2023-01-27T16:51:18.558Z,1.40
2023-01-27T16:54:20.819Z,1.67
2023-01-27T16:57:23.434Z,1.52
2023-01-27T17:00:21.684Z,1.50
2023-01-27T17:03:15.448Z,1.85
2023-01-27T17:06:06.003Z,1.65
2023-01-27T17:08:54.362Z,2.03
2023-01-27T17:11:43.125Z,1.73
2023-01-27T17:14:34.133Z,1.50
2023-01-27T17:17:25.466Z,1.63
2023-01-27T17:23:22.341Z,1.90
2023-01-27T17:26:15.712Z,2.07
2023-01-27T17:29:04.399Z,1.98
2023-01-27T17:31:52.960Z,2.10
2023-01-27T17:34:42.562Z,2.40
2023-01-27T17:37:32.035Z,2.47
2023-01-27T17:40:23.060Z,2.30
2023-01-27T17:43:30.949Z,2.08
2023-01-27T17:46:20.878Z,1.77
2023-01-27T17:49:15.667Z,3.00
2023-01-27T17:52:09.594Z,3.40
2023-01-27T17:55:03.344Z,1.80
2023-01-27T17:57:56.157Z,1.80
2023-01-27T18:00:46.078Z,2.10
2023-01-27T18:03:36.685Z,2.40
2023-01-27T18:06:28.768Z,2.72
2023-01-27T18:09:21.416Z,1.90
2023-01-27T18:12:27.499Z,1.83
2023-01-27T18:15:39.854Z,2.20
2023-01-27T18:18:29.833Z,2.00
2023-01-27T18:21:20.166Z,1.67
2023-01-27T18:24:21.699Z,1.63
2023-01-27T18:27:25.030Z,1.63
2023-01-27T18:30:16.420Z,2.00
2023-01-27T18:33:06.714Z,1.58
2023-01-27T18:36:00.046Z,1.70
2023-01-27T18:38:50.713Z,1.58
2023-01-27T18:41:47.792Z,1.75
2023-01-27T18:44:37.037Z,1.45
2023-01-27T18:47:34.539Z,1.67
2023-01-27T18:50:24.236Z,1.38
2023-01-27T18:53:15.286Z,1.63
2023-01-27T18:56:04.471Z,1.48
2023-01-27T18:58:55.227Z,1.40
2023-01-27T19:01:43.403Z,1.90
2023-01-27T19:04:32.554Z,1.42
2023-01-27T19:07:20.728Z,1.45
2023-01-27T19:10:14.432Z,1.40
2023-01-27T19:13:04.331Z,1.45
2023-01-27T19:15:55.828Z,2.20
2023-01-27T19:18:46.389Z,1.60
2023-01-27T19:21:34.898Z,1.17
2023-01-27T19:24:23.149Z,1.50
2023-01-27T19:27:13.126Z,1.77
2023-01-27T19:30:20.638Z,1.38
2023-01-27T19:33:18.316Z,1.60
2023-01-27T19:36:20.755Z,1.50
2023-01-27T19:39:14.236Z,1.20
2023-01-27T19:42:02.409Z,1.55
2023-01-27T19:44:50.525Z,1.25
2023-01-27T19:47:38.686Z,1.88
2023-01-27T19:50:30.095Z,1.80
2023-01-27T19:53:20.111Z,1.52
2023-01-27T19:56:17.163Z,1.00
2023-01-27T19:59:05.577Z,0.90
2023-01-27T20:01:53.769Z,1.67
2023-01-27T20:04:42.006Z,1.10
2023-01-27T20:07:31.530Z,1.33
2023-01-27T20:10:22.466Z,1.38
2023-01-27T20:13:14.932Z,1.50
2023-01-27T20:16:03.258Z,1.40
2023-01-27T20:18:51.517Z,1.02
2023-01-27T20:21:39.704Z,0.98
2023-01-27T20:24:29.360Z,1.50
2023-01-27T20:27:17.610Z,0.95
2023-01-27T20:30:06.615Z,0.88
2023-01-27T20:32:56.472Z,0.80
2023-01-27T20:35:44.799Z,1.33
2023-01-27T20:38:32.962Z,1.10
2023-01-27T20:41:24.988Z,1.45
2023-01-27T20:44:13.684Z,1.40
2023-01-27T20:47:01.927Z,1.20
2023-01-27T20:49:50.066Z,1.15
2023-01-27T20:52:40.055Z,1.60
2023-01-27T20:55:30.359Z,1.75
2023-01-27T20:58:20.712Z,1.40
2023-01-27T21:01:10.597Z,1.65
2023-01-27T21:03:58.829Z,1.48
2023-01-27T21:06:47.037Z,1.50
2023-01-27T21:09:35.218Z,1.27
2023-01-27T21:12:23.435Z,1.15
2023-01-27T21:15:13.540Z,1.00
2023-01-27T21:18:01.892Z,1.03
2023-01-27T21:20:50.341Z,1.10
2023-01-27T21:23:38.582Z,1.38
2023-01-27T21:26:27.132Z,1.02
2023-01-27T21:29:15.478Z,1.40
2023-01-27T21:32:05.303Z,1.23
2023-01-27T21:34:53.525Z,1.25
2023-01-27T21:37:42.669Z,0.98
2023-01-27T21:40:31.130Z,1.30
2023-01-27T21:43:37.012Z,0.82
2023-01-27T21:46:25.277Z,1.40
2023-01-27T21:49:14.807Z,1.90
2023-01-27T21:52:02.975Z,2.28
2023-01-27T21:54:51.131Z,2.10
2023-01-27T21:57:39.570Z,2.30
2023-01-27T22:00:29.153Z,3.58
2023-01-27T22:03:17.320Z,3.17
2023-01-27T22:06:08.460Z,2.90
2023-01-27T22:08:56.603Z,1.73
2023-01-27T22:11:44.759Z,2.50
2023-01-27T22:14:33.282Z,1.90
2023-01-27T22:17:21.435Z,2.00
2023-01-27T22:20:13.741Z,1.60
2023-01-27T22:23:03.221Z,1.35
2023-01-27T22:25:52.338Z,1.70
2023-01-27T22:28:40.506Z,1.63
2023-01-27T22:31:28.701Z,1.63
2023-01-27T22:34:17.738Z,2.67
2023-01-27T22:37:05.891Z,1.48
2023-01-27T22:39:55.369Z,0.93
2023-01-27T22:42:43.703Z,1.10
2023-01-27T22:45:31.905Z,1.58
2023-01-27T22:48:20.058Z,2.10
2023-01-27T22:51:08.196Z,1.80
2023-01-27T22:53:56.372Z,1.50
2023-01-27T22:56:45.860Z,1.73
2023-01-27T22:59:34.023Z,1.65
2023-01-27T23:02:22.326Z,1.98
2023-01-27T23:05:10.967Z,1.52
2023-01-27T23:07:59.156Z,1.67
2023-01-27T23:10:47.823Z,1.42
2023-01-27T23:13:37.403Z,1.20
2023-01-27T23:16:25.588Z,1.60
2023-01-27T23:19:13.744Z,1.10
2023-01-27T23:22:01.936Z,1.10
2023-01-27T23:24:50.091Z,1.40
2023-01-27T23:27:38.471Z,1.45
2023-01-27T23:30:28.124Z,0.90
2023-01-27T23:33:18.072Z,1.00
2023-01-27T23:36:08.322Z,1.45
2023-01-27T23:38:56.727Z,1.00
2023-01-27T23:41:44.897Z,1.15
2023-01-27T23:44:33.029Z,1.25
2023-01-27T23:47:22.504Z,1.00
2023-01-27T23:50:11.845Z,1.35
2023-01-27T23:52:59.990Z,1.27
2023-01-27T23:55:56.593Z,1.10
2023-01-27T23:58:45.492Z,1.65
